Buoy 46562

sailwx.info

Track history (hours):
 
Tides and Currents Weather Stations Pressure Air Temp Water Temp Dewpoint Dewpoint Depression Visibility Wind Speed Wind Dir Waves Ship Positions

Drifting buoy 46562

Last reported at 2016-Feb-06 05:00 UTC. Time now 2016-Feb-06 07:21 UTC.
Position N 42°57' W 125°09'.

Water temperature 11.8 ° C

Date/timePositionNaut miles runAvg speedWind from/ knotsBaromVisibWave heightAir tempDewpointWater temp
2016-Feb-06 05:00N 42°57' W 125°09'1 0.4 11.8
2016-Feb-06 03:00N 42°58' W 125°10'0 0.1 11.9
2016-Feb-06 02:00N 42°58' W 125°10'3 1.7 11.9
2016-Feb-06 00:00N 42°55' W 125°13'0 0.0 11.9
2016-Feb-05 23:00N 42°55' W 125°13'2 2.2 11.9
2016-Feb-05 22:00N 42°53' W 125°13'0 0.0 11.9
2016-Feb-05 21:00N 42°53' W 125°13'3 3.4 11.9
2016-Feb-05 20:00N 42°50' W 125°12'2 1.1 11.7
2016-Feb-05 18:00N 42°48' W 125°13'0 0.1 11.7
2016-Feb-05 16:00N 42°48' W 125°13'2 1.5 11.7
2016-Feb-05 15:00N 42°47' W 125°13'5 1.3 11.7
2016-Feb-05 11:00N 42°42' W 125°16'0 0.0 11.7
2016-Feb-05 07:00N 42°42' W 125°16'4 0.8 11.6
2016-Feb-05 02:00N 42°38' W 125°16'3 1.3 11.7
2016-Feb-05 00:00N 42°36' W 125°17'2 0.7 11.7
2016-Feb-04 21:00N 42°34' W 125°19'0 0.0 11.6
2016-Feb-04 20:00N 42°34' W 125°19'1 1.1 11.6
2016-Feb-04 19:00N 42°33' W 125°20'1 0.7 11.6
2016-Feb-04 18:00N 42°33' W 125°20'1 1.2 11.6
2016-Feb-04 17:00N 42°32' W 125°21'4 3.9 11.6
2016-Feb-04 16:00N 42°28' W 125°24'0 0.3 11.6
2016-Feb-04 15:00N 42°28' W 125°24'2 1.8 11.6
2016-Feb-04 14:00N 42°27' W 125°24'3 3.0 11.6
2016-Feb-04 13:00N 42°24' W 125°25'0 0.2 11.6
2016-Feb-04 12:00N 42°24' W 125°25'14 1.6 11.6
2016-Feb-04 03:00N 42°10' W 125°21'1 0.4 11.6
2016-Feb-04 01:00N 42°09' W 125°21'1 0.6 11.6
2016-Feb-03 23:00N 42°08' W 125°22'2 1.1 11.6
2016-Feb-03 21:00N 42°07' W 125°24'6 1.0 11.6
2016-Feb-03 15:00N 42°01' W 125°24'3 1.3 11.6
2016-Feb-03 13:00N 41°58' W 125°24'2 1.6 11.7
2016-Feb-03 12:00N 41°57' W 125°24'4 1.3 11.8
2016-Feb-03 09:00N 41°53' W 125°23'4 0.4 11.8
2016-Feb-02 23:00N 41°51' W 125°27'2 0.2 12.0
2016-Feb-02 15:00N 41°49' W 125°27'1 0.7 11.8
2016-Feb-02 13:00N 41°51' W 125°26'1 0.5 11.9
2016-Feb-02 11:00N 41°51' W 125°27'2 2.5 11.7
2016-Feb-02 10:00N 41°52' W 125°30'2 1.9 11.8
2016-Feb-02 09:00N 41°52' W 125°28'3 0.7 11.7
2016-Feb-02 04:00N 41°50' W 125°32'2 0.9 11.7
2016-Feb-02 02:00N 41°49' W 125°34'1 0.8 11.8
2016-Feb-02 01:00N 41°48' W 125°34'0 0.1 11.8
2016-Feb-01 16:00N 41°48' W 125°34'0 0.0 11.7
2016-Feb-01 15:00N 41°48' W 125°34'1 0.6 11.7
2016-Feb-01 14:00N 41°49' W 125°35'2 0.8 11.7
2016-Feb-01 12:00N 41°50' W 125°36'1 1.3 11.7
2016-Feb-01 11:00N 41°51' W 125°37'2 2.0 11.8
2016-Feb-01 10:00N 41°51' W 125°40'0 0.1 11.8
2016-Feb-01 06:00N 41°51' W 125°40'0 0.1 11.4
2016-Feb-01 05:00N 41°51' W 125°40'1 0.5 11.4
2016-Feb-01 04:00N 41°52' W 125°39'0 0.2 11.4
2016-Feb-01 03:00N 41°51' W 125°39'1 1.0 11.4
2016-Feb-01 02:00N 41°52' W 125°38'1 0.6 11.4
2016-Feb-01 01:00N 41°53' W 125°38'1 1.0 11.4
2016-Feb-01 00:00N 41°54' W 125°38'0 0.4 11.4
2016-Jan-31 23:00N 41°54' W 125°38'1 1.2 11.5
2016-Jan-31 22:00N 41°55' W 125°38'0 0.0 11.5
2016-Jan-31 21:00N 41°55' W 125°38'2 2.3 11.5
2016-Jan-31 20:00N 41°57' W 125°38'1 0.4 11.5
2016-Jan-31 18:00N 41°57' W 125°39'1 0.4 11.5
2016-Jan-31 16:00N 41°58' W 125°40'0 0.1 11.5
2016-Jan-31 15:00N 41°58' W 125°40'0 0.4 11.5
2016-Jan-31 14:00N 41°57' W 125°41'1 0.5 11.5
2016-Jan-31 13:00N 41°57' W 125°40'1 1.1 11.5
2016-Jan-31 12:00N 41°57' W 125°39'0 0.0 11.5
2016-Jan-31 11:00N 41°57' W 125°39'1 1.1 11.5
2016-Jan-31 10:00N 41°57' W 125°38'0 0.1 11.5
2016-Jan-31 06:00N 41°57' W 125°38'1 0.6 11.6
2016-Jan-31 05:00N 41°58' W 125°38'1 1.2 11.6
2016-Jan-31 04:00N 41°59' W 125°37'1 0.7 11.6
2016-Jan-31 03:00N 41°59' W 125°37'0 0.0 11.6
2016-Jan-31 02:00N 41°59' W 125°37'1 0.6 11.6
2016-Jan-31 01:00N 41°59' W 125°38'1 0.8 11.6
2016-Jan-31 00:00N 41°60' W 125°39'0 0.3 11.6
2016-Jan-30 23:00N 41°60' W 125°39'1 0.8 11.6
2016-Jan-30 22:00N 41°59' W 125°40'1 0.3 11.6
2016-Jan-30 18:00N 41°59' W 125°41'1 0.3 11.6
2016-Jan-30 15:00N 41°59' W 125°42'0 0.1 11.6
2016-Jan-30 14:00N 41°59' W 125°42'3 0.4 11.5
2016-Jan-30 06:00N 42°00' W 125°46'0 0.3 11.4
2016-Jan-30 05:00N 42°00' W 125°46'2 2.1 11.4
2016-Jan-30 04:00N 41°60' W 125°49'3 0.6 11.4
2016-Jan-30 00:00N 41°58' W 125°51'0 0.0 11.4
2016-Jan-29 23:00N 41°58' W 125°51'2 0.6 11.4
2016-Jan-29 19:00N 41°56' W 125°54'1 0.3 11.3
2016-Jan-29 17:00N 41°56' W 125°53'2 0.8 11.3
2016-Jan-29 15:00N 41°57' W 125°54'0 0.3 11.4
2016-Jan-29 14:00N 41°57' W 125°54'2 0.9 11.5
2016-Jan-29 12:00N 41°58' W 125°56'6 3.2 11.5
2016-Jan-29 10:00N 41°54' W 126°02'0 0.0 11.6
2016-Jan-29 07:00N 41°54' W 126°02'1 1.3 11.6
2016-Jan-29 06:00N 41°52' W 126°03'1 0.7 11.6
2016-Jan-29 05:00N 41°52' W 126°03'0 0.3 11.6
2016-Jan-29 04:00N 41°51' W 126°03'2 1.6 11.6
2016-Jan-29 03:00N 41°50' W 126°03'1 0.6 11.6
2016-Jan-29 02:00N 41°49' W 126°03'1 0.6 11.6
2016-Jan-29 00:00N 41°48' W 126°02'1 1.0 11.6
2016-Jan-28 23:00N 41°48' W 126°01'0 0.1 11.7
2016-Jan-28 22:00N 41°48' W 126°01'1 0.3 11.7
2016-Jan-28 20:00N 41°48' W 126°00'1 0.8 11.6
2016-Jan-28 19:00N 41°49' W 126°01'1 0.3 11.5
2016-Jan-28 16:00N 41°50' W 126°02'2 1.0 11.4
2016-Jan-28 14:00N 41°49' W 126°05'3 1.3 11.5
2016-Jan-28 12:00N 41°48' W 126°07'5 5.0 11.5
2016-Jan-28 11:00N 41°43' W 126°09'1 0.2 11.6
2016-Jan-28 06:00N 41°42' W 126°09'0 0.0 11.6
2016-Jan-28 05:00N 41°42' W 126°09'1 1.1 11.6
2016-Jan-28 04:00N 41°41' W 126°10'0 0.0 11.6
2016-Jan-28 03:00N 41°41' W 126°10'1 1.0 11.6
2016-Jan-28 02:00N 41°40' W 126°10'0 0.4 11.7
2016-Jan-28 01:00N 41°39' W 126°09'1 0.6 11.7
2016-Jan-28 00:00N 41°39' W 126°10'0 0.0 11.6
2016-Jan-27 23:00N 41°39' W 126°10'0 0.0 11.6
2016-Jan-27 22:00N 41°39' W 126°10'3 3.5 11.5
2016-Jan-27 21:00N 41°37' W 126°14'0 0.0 11.5
2016-Jan-27 20:00N 41°37' W 126°14'0 0.0 11.5
2016-Jan-27 19:00N 41°37' W 126°14'2 2.4 11.5
2016-Jan-27 18:00N 41°34' W 126°14'2 1.1 11.5
2016-Jan-27 16:00N 41°32' W 126°15'2 0.8 11.6
2016-Jan-27 14:00N 41°31' W 126°14'1 0.6 11.7
2016-Jan-27 13:00N 41°30' W 126°13'2 1.2 11.7
2016-Jan-27 11:00N 41°28' W 126°14'1 0.2 11.6
2016-Jan-27 05:00N 41°28' W 126°15'   11.9
Track history (hours):
 
Tides and Currents Weather Stations Pressure Air Temp Water Temp Dewpoint Dewpoint Depression Visibility Wind Speed Wind Dir Waves Ship Positions

Drifting buoy 46562

Last reported at 2016-Feb-06 05:00 UTC. Time now 2016-Feb-06 07:21 UTC.
Position N 42°57' W 125°09'.

Water temperature 11.8 ° C

Date/timePositionNaut miles runAvg speedWind from/ knotsBaromVisibWave heightAir tempDewpointWater temp
2016-Feb-06 05:00N 42°57' W 125°09'1 0.4 11.8
2016-Feb-06 03:00N 42°58' W 125°10'0 0.1 11.9
2016-Feb-06 02:00N 42°58' W 125°10'3 1.7 11.9
2016-Feb-06 00:00N 42°55' W 125°13'0 0.0 11.9
2016-Feb-05 23:00N 42°55' W 125°13'2 2.2 11.9
2016-Feb-05 22:00N 42°53' W 125°13'0 0.0 11.9
2016-Feb-05 21:00N 42°53' W 125°13'3 3.4 11.9
2016-Feb-05 20:00N 42°50' W 125°12'2 1.1 11.7
2016-Feb-05 18:00N 42°48' W 125°13'0 0.1 11.7
2016-Feb-05 16:00N 42°48' W 125°13'2 1.5 11.7
2016-Feb-05 15:00N 42°47' W 125°13'5 1.3 11.7
2016-Feb-05 11:00N 42°42' W 125°16'0 0.0 11.7
2016-Feb-05 07:00N 42°42' W 125°16'4 0.8 11.6
2016-Feb-05 02:00N 42°38' W 125°16'3 1.3 11.7
2016-Feb-05 00:00N 42°36' W 125°17'2 0.7 11.7
2016-Feb-04 21:00N 42°34' W 125°19'0 0.0 11.6
2016-Feb-04 20:00N 42°34' W 125°19'1 1.1 11.6
2016-Feb-04 19:00N 42°33' W 125°20'1 0.7 11.6
2016-Feb-04 18:00N 42°33' W 125°20'1 1.2 11.6
2016-Feb-04 17:00N 42°32' W 125°21'4 3.9 11.6
2016-Feb-04 16:00N 42°28' W 125°24'0 0.3 11.6
2016-Feb-04 15:00N 42°28' W 125°24'2 1.8 11.6
2016-Feb-04 14:00N 42°27' W 125°24'3 3.0 11.6
2016-Feb-04 13:00N 42°24' W 125°25'0 0.2 11.6
2016-Feb-04 12:00N 42°24' W 125°25'14 1.6 11.6
2016-Feb-04 03:00N 42°10' W 125°21'1 0.4 11.6
2016-Feb-04 01:00N 42°09' W 125°21'1 0.6 11.6
2016-Feb-03 23:00N 42°08' W 125°22'2 1.1 11.6
2016-Feb-03 21:00N 42°07' W 125°24'6 1.0 11.6
2016-Feb-03 15:00N 42°01' W 125°24'3 1.3 11.6
2016-Feb-03 13:00N 41°58' W 125°24'2 1.6 11.7
2016-Feb-03 12:00N 41°57' W 125°24'4 1.3 11.8
2016-Feb-03 09:00N 41°53' W 125°23'4 0.4 11.8
2016-Feb-02 23:00N 41°51' W 125°27'2 0.2 12.0
2016-Feb-02 15:00N 41°49' W 125°27'1 0.7 11.8
2016-Feb-02 13:00N 41°51' W 125°26'1 0.5 11.9
2016-Feb-02 11:00N 41°51' W 125°27'2 2.5 11.7
2016-Feb-02 10:00N 41°52' W 125°30'2 1.9 11.8
2016-Feb-02 09:00N 41°52' W 125°28'3 0.7 11.7
2016-Feb-02 04:00N 41°50' W 125°32'2 0.9 11.7
2016-Feb-02 02:00N 41°49' W 125°34'1 0.8 11.8
2016-Feb-02 01:00N 41°48' W 125°34'0 0.1 11.8
2016-Feb-01 16:00N 41°48' W 125°34'0 0.0 11.7
2016-Feb-01 15:00N 41°48' W 125°34'1 0.6 11.7
2016-Feb-01 14:00N 41°49' W 125°35'2 0.8 11.7
2016-Feb-01 12:00N 41°50' W 125°36'1 1.3 11.7
2016-Feb-01 11:00N 41°51' W 125°37'2 2.0 11.8
2016-Feb-01 10:00N 41°51' W 125°40'0 0.1 11.8
2016-Feb-01 06:00N 41°51' W 125°40'0 0.1 11.4
2016-Feb-01 05:00N 41°51' W 125°40'1 0.5 11.4
2016-Feb-01 04:00N 41°52' W 125°39'0 0.2 11.4
2016-Feb-01 03:00N 41°51' W 125°39'1 1.0 11.4
2016-Feb-01 02:00N 41°52' W 125°38'1 0.6 11.4
2016-Feb-01 01:00N 41°53' W 125°38'1 1.0 11.4
2016-Feb-01 00:00N 41°54' W 125°38'0 0.4 11.4
2016-Jan-31 23:00N 41°54' W 125°38'1 1.2 11.5
2016-Jan-31 22:00N 41°55' W 125°38'0 0.0 11.5
2016-Jan-31 21:00N 41°55' W 125°38'2 2.3 11.5
2016-Jan-31 20:00N 41°57' W 125°38'1 0.4 11.5
2016-Jan-31 18:00N 41°57' W 125°39'1 0.4 11.5
2016-Jan-31 16:00N 41°58' W 125°40'0 0.1 11.5
2016-Jan-31 15:00N 41°58' W 125°40'0 0.4 11.5
2016-Jan-31 14:00N 41°57' W 125°41'1 0.5 11.5
2016-Jan-31 13:00N 41°57' W 125°40'1 1.1 11.5
2016-Jan-31 12:00N 41°57' W 125°39'0 0.0 11.5
2016-Jan-31 11:00N 41°57' W 125°39'1 1.1 11.5
2016-Jan-31 10:00N 41°57' W 125°38'0 0.1 11.5
2016-Jan-31 06:00N 41°57' W 125°38'1 0.6 11.6
2016-Jan-31 05:00N 41°58' W 125°38'1 1.2 11.6
2016-Jan-31 04:00N 41°59' W 125°37'1 0.7 11.6
2016-Jan-31 03:00N 41°59' W 125°37'0 0.0 11.6
2016-Jan-31 02:00N 41°59' W 125°37'1 0.6 11.6
2016-Jan-31 01:00N 41°59' W 125°38'1 0.8 11.6
2016-Jan-31 00:00N 41°60' W 125°39'0 0.3 11.6
2016-Jan-30 23:00N 41°60' W 125°39'1 0.8 11.6
2016-Jan-30 22:00N 41°59' W 125°40'1 0.3 11.6
2016-Jan-30 18:00N 41°59' W 125°41'1 0.3 11.6
2016-Jan-30 15:00N 41°59' W 125°42'0 0.1 11.6
2016-Jan-30 14:00N 41°59' W 125°42'3 0.4 11.5
2016-Jan-30 06:00N 42°00' W 125°46'0 0.3 11.4
2016-Jan-30 05:00N 42°00' W 125°46'2 2.1 11.4
2016-Jan-30 04:00N 41°60' W 125°49'3 0.6 11.4
2016-Jan-30 00:00N 41°58' W 125°51'0 0.0 11.4
2016-Jan-29 23:00N 41°58' W 125°51'2 0.6 11.4
2016-Jan-29 19:00N 41°56' W 125°54'1 0.3 11.3
2016-Jan-29 17:00N 41°56' W 125°53'2 0.8 11.3
2016-Jan-29 15:00N 41°57' W 125°54'0 0.3 11.4
2016-Jan-29 14:00N 41°57' W 125°54'2 0.9 11.5
2016-Jan-29 12:00N 41°58' W 125°56'6 3.2 11.5
2016-Jan-29 10:00N 41°54' W 126°02'0 0.0 11.6
2016-Jan-29 07:00N 41°54' W 126°02'1 1.3 11.6
2016-Jan-29 06:00N 41°52' W 126°03'1 0.7 11.6
2016-Jan-29 05:00N 41°52' W 126°03'0 0.3 11.6
2016-Jan-29 04:00N 41°51' W 126°03'2 1.6 11.6
2016-Jan-29 03:00N 41°50' W 126°03'1 0.6 11.6
2016-Jan-29 02:00N 41°49' W 126°03'1 0.6 11.6
2016-Jan-29 00:00N 41°48' W 126°02'1 1.0 11.6
2016-Jan-28 23:00N 41°48' W 126°01'0 0.1 11.7
2016-Jan-28 22:00N 41°48' W 126°01'1 0.3 11.7
2016-Jan-28 20:00N 41°48' W 126°00'1 0.8 11.6
2016-Jan-28 19:00N 41°49' W 126°01'1 0.3 11.5
2016-Jan-28 16:00N 41°50' W 126°02'2 1.0 11.4
2016-Jan-28 14:00N 41°49' W 126°05'3 1.3 11.5
2016-Jan-28 12:00N 41°48' W 126°07'5 5.0 11.5
2016-Jan-28 11:00N 41°43' W 126°09'1 0.2 11.6
2016-Jan-28 06:00N 41°42' W 126°09'0 0.0 11.6
2016-Jan-28 05:00N 41°42' W 126°09'1 1.1 11.6
2016-Jan-28 04:00N 41°41' W 126°10'0 0.0 11.6
2016-Jan-28 03:00N 41°41' W 126°10'1 1.0 11.6
2016-Jan-28 02:00N 41°40' W 126°10'0 0.4 11.7
2016-Jan-28 01:00N 41°39' W 126°09'1 0.6 11.7
2016-Jan-28 00:00N 41°39' W 126°10'0 0.0 11.6
2016-Jan-27 23:00N 41°39' W 126°10'0 0.0 11.6
2016-Jan-27 22:00N 41°39' W 126°10'3 3.5 11.5
2016-Jan-27 21:00N 41°37' W 126°14'0 0.0 11.5
2016-Jan-27 20:00N 41°37' W 126°14'0 0.0 11.5
2016-Jan-27 19:00N 41°37' W 126°14'2 2.4 11.5
2016-Jan-27 18:00N 41°34' W 126°14'2 1.1 11.5
2016-Jan-27 16:00N 41°32' W 126°15'2 0.8 11.6
2016-Jan-27 14:00N 41°31' W 126°14'1 0.6 11.7
2016-Jan-27 13:00N 41°30' W 126°13'2 1.2 11.7
2016-Jan-27 11:00N 41°28' W 126°14'1 0.2 11.6
2016-Jan-27 05:00N 41°28' W 126°15'   11.9

Dump ship's entire track history